sensor_id;sensor_type;location;lat;lon;timestamp;temperature;humidity
39103;DHT22;24847;48.218;16.414;2024-01-27T00:00:28;6.80;64.10
39103;DHT22;24847;48.218;16.414;2024-01-27T00:05:31;6.80;64.00
39103;DHT22;24847;48.218;16.414;2024-01-27T00:10:34;6.80;63.90
39103;DHT22;24847;48.218;16.414;2024-01-27T00:15:36;6.90;63.80
39103;DHT22;24847;48.218;16.414;2024-01-27T00:20:38;6.60;64.00
39103;DHT22;24847;48.218;16.414;2024-01-27T00:25:42;6.80;63.60
39103;DHT22;24847;48.218;16.414;2024-01-27T00:30:44;6.60;63.60
39103;DHT22;24847;48.218;16.414;2024-01-27T00:35:47;6.70;63.90
39103;DHT22;24847;48.218;16.414;2024-01-27T00:40:50;6.70;63.50
39103;DHT22;24847;48.218;16.414;2024-01-27T00:45:53;6.70;63.10
39103;DHT22;24847;48.218;16.414;2024-01-27T00:50:56;6.70;61.90
39103;DHT22;24847;48.218;16.414;2024-01-27T00:55:59;6.80;62.10
39103;DHT22;24847;48.218;16.414;2024-01-27T01:01:02;6.70;61.20
39103;DHT22;24847;48.218;16.414;2024-01-27T01:06:04;6.80;61.50
39103;DHT22;24847;48.218;16.414;2024-01-27T01:11:08;6.70;60.80
39103;DHT22;24847;48.218;16.414;2024-01-27T01:16:10;6.60;60.80
39103;DHT22;24847;48.218;16.414;2024-01-27T01:21:12;6.70;60.20
39103;DHT22;24847;48.218;16.414;2024-01-27T01:26:16;6.60;60.70
39103;DHT22;24847;48.218;16.414;2024-01-27T01:31:18;6.70;60.70
39103;DHT22;24847;48.218;16.414;2024-01-27T01:36:20;6.70;61.00
39103;DHT22;24847;48.218;16.414;2024-01-27T01:41:24;6.60;60.50
39103;DHT22;24847;48.218;16.414;2024-01-27T01:46:26;6.60;60.20
39103;DHT22;24847;48.218;16.414;2024-01-27T01:51:28;6.50;60.30
39103;DHT22;24847;48.218;16.414;2024-01-27T01:56:32;6.50;60.20
39103;DHT22;24847;48.218;16.414;2024-01-27T02:01:34;6.40;62.50
39103;DHT22;24847;48.218;16.414;2024-01-27T02:06:36;6.40;63.40
39103;DHT22;24847;48.218;16.414;2024-01-27T02:11:40;6.20;64.70
39103;DHT22;24847;48.218;16.414;2024-01-27T02:16:42;6.30;64.30
39103;DHT22;24847;48.218;16.414;2024-01-27T02:21:44;6.10;64.70
39103;DHT22;24847;48.218;16.414;2024-01-27T02:26:48;6.10;64.50
39103;DHT22;24847;48.218;16.414;2024-01-27T02:31:50;6.10;65.50
39103;DHT22;24847;48.218;16.414;2024-01-27T02:36:52;6.00;66.80
39103;DHT22;24847;48.218;16.414;2024-01-27T02:41:55;6.00;67.80
39103;DHT22;24847;48.218;16.414;2024-01-27T02:46:57;6.00;67.80
39103;DHT22;24847;48.218;16.414;2024-01-27T02:52:00;5.90;67.60
39103;DHT22;24847;48.218;16.414;2024-01-27T02:57:03;5.90;67.60
39103;DHT22;24847;48.218;16.414;2024-01-27T03:02:06;5.90;67.30
39103;DHT22;24847;48.218;16.414;2024-01-27T03:07:08;5.90;67.50
39103;DHT22;24847;48.218;16.414;2024-01-27T03:12:12;5.90;67.90
39103;DHT22;24847;48.218;16.414;2024-01-27T03:17:16;5.90;68.10
39103;DHT22;24847;48.218;16.414;2024-01-27T03:22:18;5.90;67.80
39103;DHT22;24847;48.218;16.414;2024-01-27T03:27:21;6.00;66.70
39103;DHT22;24847;48.218;16.414;2024-01-27T03:32:24;6.00;66.70
39103;DHT22;24847;48.218;16.414;2024-01-27T03:37:26;5.90;66.30
39103;DHT22;24847;48.218;16.414;2024-01-27T03:42:29;6.00;66.20
39103;DHT22;24847;48.218;16.414;2024-01-27T03:47:31;5.90;67.00
39103;DHT22;24847;48.218;16.414;2024-01-27T03:52:34;6.00;66.50
39103;DHT22;24847;48.218;16.414;2024-01-27T03:57:38;5.70;66.10
39103;DHT22;24847;48.218;16.414;2024-01-27T04:02:40;5.80;65.20
39103;DHT22;24847;48.218;16.414;2024-01-27T04:07:42;5.80;65.00
39103;DHT22;24847;48.218;16.414;2024-01-27T04:12:45;5.80;64.80
39103;DHT22;24847;48.218;16.414;2024-01-27T04:17:48;5.70;65.00
39103;DHT22;24847;48.218;16.414;2024-01-27T04:22:50;5.50;65.80
39103;DHT22;24847;48.218;16.414;2024-01-27T04:27:53;5.60;65.60
39103;DHT22;24847;48.218;16.414;2024-01-27T04:32:55;5.60;66.10
39103;DHT22;24847;48.218;16.414;2024-01-27T04:37:57;5.80;64.70
39103;DHT22;24847;48.218;16.414;2024-01-27T04:43:01;5.60;65.70
39103;DHT22;24847;48.218;16.414;2024-01-27T04:48:04;5.60;65.60
39103;DHT22;24847;48.218;16.414;2024-01-27T04:53:07;5.60;66.60
39103;DHT22;24847;48.218;16.414;2024-01-27T04:58:10;5.70;67.20
39103;DHT22;24847;48.218;16.414;2024-01-27T05:03:12;5.50;67.70
39103;DHT22;24847;48.218;16.414;2024-01-27T05:08:15;5.60;67.60
39103;DHT22;24847;48.218;16.414;2024-01-27T05:13:18;5.60;67.70
39103;DHT22;24847;48.218;16.414;2024-01-27T05:18:21;5.60;67.10
39103;DHT22;24847;48.218;16.414;2024-01-27T05:23:23;5.30;66.60
39103;DHT22;24847;48.218;16.414;2024-01-27T05:28:26;5.20;66.60
39103;DHT22;24847;48.218;16.414;2024-01-27T05:33:28;5.30;66.50
39103;DHT22;24847;48.218;16.414;2024-01-27T05:38:30;5.50;66.10
39103;DHT22;24847;48.218;16.414;2024-01-27T05:43:34;5.50;65.50
39103;DHT22;24847;48.218;16.414;2024-01-27T05:48:36;5.50;66.30
39103;DHT22;24847;48.218;16.414;2024-01-27T05:53:39;5.50;66.30
39103;DHT22;24847;48.218;16.414;2024-01-27T05:58:42;5.60;66.30
39103;DHT22;24847;48.218;16.414;2024-01-27T06:03:45;5.30;67.30
39103;DHT22;24847;48.218;16.414;2024-01-27T06:08:47;5.50;67.10
39103;DHT22;24847;48.218;16.414;2024-01-27T06:13:50;5.50;66.00
39103;DHT22;24847;48.218;16.414;2024-01-27T06:18:53;5.20;66.60
39103;DHT22;24847;48.218;16.414;2024-01-27T06:23:55;5.30;66.60
39103;DHT22;24847;48.218;16.414;2024-01-27T06:28:58;5.30;66.60
39103;DHT22;24847;48.218;16.414;2024-01-27T06:34:00;5.10;67.90
39103;DHT22;24847;48.218;16.414;2024-01-27T06:39:03;5.10;68.00
39103;DHT22;24847;48.218;16.414;2024-01-27T06:44:06;5.10;67.60
39103;DHT22;24847;48.218;16.414;2024-01-27T06:49:09;5.00;68.00
39103;DHT22;24847;48.218;16.414;2024-01-27T06:54:11;5.10;67.10
39103;DHT22;24847;48.218;16.414;2024-01-27T06:59:15;5.00;66.20
39103;DHT22;24847;48.218;16.414;2024-01-27T07:04:17;4.90;65.20
39103;DHT22;24847;48.218;16.414;2024-01-27T07:09:19;4.90;64.90
39103;DHT22;24847;48.218;16.414;2024-01-27T07:14:23;4.80;65.60
39103;DHT22;24847;48.218;16.414;2024-01-27T07:19:25;4.90;65.40
39103;DHT22;24847;48.218;16.414;2024-01-27T07:24:28;4.90;65.50
39103;DHT22;24847;48.218;16.414;2024-01-27T07:29:32;4.90;67.00
39103;DHT22;24847;48.218;16.414;2024-01-27T07:34:34;4.90;67.30
39103;DHT22;24847;48.218;16.414;2024-01-27T07:39:36;4.90;67.70
39103;DHT22;24847;48.218;16.414;2024-01-27T07:44:40;4.80;67.80
39103;DHT22;24847;48.218;16.414;2024-01-27T07:49:42;4.90;67.40
39103;DHT22;24847;48.218;16.414;2024-01-27T07:54:45;4.90;67.10
39103;DHT22;24847;48.218;16.414;2024-01-27T07:59:49;4.90;66.70
39103;DHT22;24847;48.218;16.414;2024-01-27T08:04:51;4.90;66.90
39103;DHT22;24847;48.218;16.414;2024-01-27T08:09:54;5.00;65.80
39103;DHT22;24847;48.218;16.414;2024-01-27T08:14:58;5.30;65.60
39103;DHT22;24847;48.218;16.414;2024-01-27T08:20:00;5.10;66.00
39103;DHT22;24847;48.218;16.414;2024-01-27T08:25:04;5.20;64.80
39103;DHT22;24847;48.218;16.414;2024-01-27T08:30:09;5.20;64.70
39103;DHT22;24847;48.218;16.414;2024-01-27T08:35:13;5.10;65.10
39103;DHT22;24847;48.218;16.414;2024-01-27T08:40:15;5.10;65.50
39103;DHT22;24847;48.218;16.414;2024-01-27T08:45:19;5.10;65.60
39103;DHT22;24847;48.218;16.414;2024-01-27T08:50:22;5.20;65.00
39103;DHT22;24847;48.218;16.414;2024-01-27T08:55:24;5.20;65.00
39103;DHT22;24847;48.218;16.414;2024-01-27T09:00:27;5.30;64.70
39103;DHT22;24847;48.218;16.414;2024-01-27T09:05:30;5.20;64.70
39103;DHT22;24847;48.218;16.414;2024-01-27T09:10:32;5.40;64.00
39103;DHT22;24847;48.218;16.414;2024-01-27T09:15:36;5.30;63.40
39103;DHT22;24847;48.218;16.414;2024-01-27T09:20:38;5.50;63.20
39103;DHT22;24847;48.218;16.414;2024-01-27T09:25:40;5.60;63.00
39103;DHT22;24847;48.218;16.414;2024-01-27T09:30:44;5.40;63.90
39103;DHT22;24847;48.218;16.414;2024-01-27T09:35:46;5.40;63.50
39103;DHT22;24847;48.218;16.414;2024-01-27T09:40:48;5.40;63.90
39103;DHT22;24847;48.218;16.414;2024-01-27T09:45:52;5.70;62.90
39103;DHT22;24847;48.218;16.414;2024-01-27T09:50:58;5.70;63.10
39103;DHT22;24847;48.218;16.414;2024-01-27T09:56:01;5.60;63.90
39103;DHT22;24847;48.218;16.414;2024-01-27T10:01:06;5.50;64.60
39103;DHT22;24847;48.218;16.414;2024-01-27T10:06:10;5.80;63.70
39103;DHT22;24847;48.218;16.414;2024-01-27T10:11:13;5.60;63.90
39103;DHT22;24847;48.218;16.414;2024-01-27T10:16:19;5.50;64.10
39103;DHT22;24847;48.218;16.414;2024-01-27T10:21:21;5.70;63.80
39103;DHT22;24847;48.218;16.414;2024-01-27T10:26:25;5.60;63.50
39103;DHT22;24847;48.218;16.414;2024-01-27T10:31:30;5.90;62.80
39103;DHT22;24847;48.218;16.414;2024-01-27T10:36:39;5.90;62.80
39103;DHT22;24847;48.218;16.414;2024-01-27T10:41:44;6.20;61.50
39103;DHT22;24847;48.218;16.414;2024-01-27T10:46:49;6.30;60.80
39103;DHT22;24847;48.218;16.414;2024-01-27T10:51:54;6.50;60.80
39103;DHT22;24847;48.218;16.414;2024-01-27T10:56:57;6.30;60.80
39103;DHT22;24847;48.218;16.414;2024-01-27T11:02:02;6.10;61.30
39103;DHT22;24847;48.218;16.414;2024-01-27T11:07:06;5.90;61.60
39103;DHT22;24847;48.218;16.414;2024-01-27T11:12:09;6.10;61.60
39103;DHT22;24847;48.218;16.414;2024-01-27T11:17:13;6.30;62.30
39103;DHT22;24847;48.218;16.414;2024-01-27T11:22:26;6.30;61.10
39103;DHT22;24847;48.218;16.414;2024-01-27T11:27:28;6.60;60.00
39103;DHT22;24847;48.218;16.414;2024-01-27T11:32:32;7.20;59.40
39103;DHT22;24847;48.218;16.414;2024-01-27T11:37:34;7.10;59.10
39103;DHT22;24847;48.218;16.414;2024-01-27T11:42:38;7.80;57.00
39103;DHT22;24847;48.218;16.414;2024-01-27T11:47:41;8.30;55.70
39103;DHT22;24847;48.218;16.414;2024-01-27T11:52:45;8.10;56.20
39103;DHT22;24847;48.218;16.414;2024-01-27T11:57:47;7.90;55.20
39103;DHT22;24847;48.218;16.414;2024-01-27T12:02:52;7.70;55.80
39103;DHT22;24847;48.218;16.414;2024-01-27T12:07:54;8.00;56.10
39103;DHT22;24847;48.218;16.414;2024-01-27T12:12:56;8.30;54.60
39103;DHT22;24847;48.218;16.414;2024-01-27T12:18:00;8.20;54.30
39103;DHT22;24847;48.218;16.414;2024-01-27T12:23:03;8.60;53.90
39103;DHT22;24847;48.218;16.414;2024-01-27T12:28:06;8.90;53.10
39103;DHT22;24847;48.218;16.414;2024-01-27T12:33:12;7.90;54.40
39103;DHT22;24847;48.218;16.414;2024-01-27T12:38:16;8.10;54.10
39103;DHT22;24847;48.218;16.414;2024-01-27T12:43:19;8.10;54.30
39103;DHT22;24847;48.218;16.414;2024-01-27T12:48:22;8.00;54.30
39103;DHT22;24847;48.218;16.414;2024-01-27T12:53:24;8.00;54.10
39103;DHT22;24847;48.218;16.414;2024-01-27T12:58:27;7.80;54.30
39103;DHT22;24847;48.218;16.414;2024-01-27T13:03:30;7.80;54.40
39103;DHT22;24847;48.218;16.414;2024-01-27T13:08:32;8.00;54.00
39103;DHT22;24847;48.218;16.414;2024-01-27T13:13:35;8.00;53.10
39103;DHT22;24847;48.218;16.414;2024-01-27T13:18:38;7.60;53.80
39103;DHT22;24847;48.218;16.414;2024-01-27T13:23:40;7.70;54.80
39103;DHT22;24847;48.218;16.414;2024-01-27T13:28:43;7.80;53.90
39103;DHT22;24847;48.218;16.414;2024-01-27T13:33:46;8.00;52.80
39103;DHT22;24847;48.218;16.414;2024-01-27T13:38:48;7.80;53.10
39103;DHT22;24847;48.218;16.414;2024-01-27T13:43:50;7.90;53.50
39103;DHT22;24847;48.218;16.414;2024-01-27T13:48:54;7.70;53.90
39103;DHT22;24847;48.218;16.414;2024-01-27T13:53:56;7.70;53.90
39103;DHT22;24847;48.218;16.414;2024-01-27T13:58:59;7.90;53.70
39103;DHT22;24847;48.218;16.414;2024-01-27T14:04:02;7.90;54.40
39103;DHT22;24847;48.218;16.414;2024-01-27T14:09:07;7.90;54.40
39103;DHT22;24847;48.218;16.414;2024-01-27T14:14:09;7.50;55.00
39103;DHT22;24847;48.218;16.414;2024-01-27T14:19:13;7.70;54.90
39103;DHT22;24847;48.218;16.414;2024-01-27T14:24:15;7.60;55.10
39103;DHT22;24847;48.218;16.414;2024-01-27T14:29:17;7.60;55.40
39103;DHT22;24847;48.218;16.414;2024-01-27T14:34:20;7.60;55.30
39103;DHT22;24847;48.218;16.414;2024-01-27T14:39:23;7.60;55.20
39103;DHT22;24847;48.218;16.414;2024-01-27T14:44:25;7.70;55.40
39103;DHT22;24847;48.218;16.414;2024-01-27T14:49:29;7.40;55.80
39103;DHT22;24847;48.218;16.414;2024-01-27T14:54:31;7.30;55.90
39103;DHT22;24847;48.218;16.414;2024-01-27T14:59:33;7.10;56.50
39103;DHT22;24847;48.218;16.414;2024-01-27T15:04:38;7.00;56.70
39103;DHT22;24847;48.218;16.414;2024-01-27T15:09:40;7.00;57.10
39103;DHT22;24847;48.218;16.414;2024-01-27T15:14:42;6.80;57.90
39103;DHT22;24847;48.218;16.414;2024-01-27T15:19:45;6.80;57.20
39103;DHT22;24847;48.218;16.414;2024-01-27T15:24:47;6.80;57.70
39103;DHT22;24847;48.218;16.414;2024-01-27T15:29:50;6.60;58.10
39103;DHT22;24847;48.218;16.414;2024-01-27T15:34:54;6.50;59.30
39103;DHT22;24847;48.218;16.414;2024-01-27T15:39:56;6.50;59.30
39103;DHT22;24847;48.218;16.414;2024-01-27T15:44:58;6.60;58.80
39103;DHT22;24847;48.218;16.414;2024-01-27T15:50:02;6.40;60.00
39103;DHT22;24847;48.218;16.414;2024-01-27T15:55:05;6.50;59.50
39103;DHT22;24847;48.218;16.414;2024-01-27T16:00:09;6.20;61.00
39103;DHT22;24847;48.218;16.414;2024-01-27T16:05:13;6.10;61.20
39103;DHT22;24847;48.218;16.414;2024-01-27T16:10:16;6.10;60.90
39103;DHT22;24847;48.218;16.414;2024-01-27T16:15:18;5.80;62.40
39103;DHT22;24847;48.218;16.414;2024-01-27T16:20:22;5.80;62.10
39103;DHT22;24847;48.218;16.414;2024-01-27T16:25:24;5.90;61.60
39103;DHT22;24847;48.218;16.414;2024-01-27T16:30:27;5.80;61.50
39103;DHT22;24847;48.218;16.414;2024-01-27T16:35:30;5.70;61.70
39103;DHT22;24847;48.218;16.414;2024-01-27T16:40:32;5.80;61.40
39103;DHT22;24847;48.218;16.414;2024-01-27T16:45:34;5.80;61.30
39103;DHT22;24847;48.218;16.414;2024-01-27T16:50:38;5.80;60.40
39103;DHT22;24847;48.218;16.414;2024-01-27T16:55:41;6.00;59.80
39103;DHT22;24847;48.218;16.414;2024-01-27T17:00:43;5.90;59.80
39103;DHT22;24847;48.218;16.414;2024-01-27T17:05:46;5.90;60.30
39103;DHT22;24847;48.218;16.414;2024-01-27T17:10:50;5.90;60.40
39103;DHT22;24847;48.218;16.414;2024-01-27T17:15:53;5.90;60.30
39103;DHT22;24847;48.218;16.414;2024-01-27T17:20:58;5.90;60.70
39103;DHT22;24847;48.218;16.414;2024-01-27T17:26:02;5.90;60.20
39103;DHT22;24847;48.218;16.414;2024-01-27T17:31:05;5.90;60.10
39103;DHT22;24847;48.218;16.414;2024-01-27T17:36:08;5.80;61.20
39103;DHT22;24847;48.218;16.414;2024-01-27T17:41:10;5.70;60.70
39103;DHT22;24847;48.218;16.414;2024-01-27T17:46:13;5.70;61.20
39103;DHT22;24847;48.218;16.414;2024-01-27T17:51:17;5.80;61.30
39103;DHT22;24847;48.218;16.414;2024-01-27T17:56:22;5.60;61.90
39103;DHT22;24847;48.218;16.414;2024-01-27T18:01:25;5.60;62.30
39103;DHT22;24847;48.218;16.414;2024-01-27T18:06:28;5.70;62.00
39103;DHT22;24847;48.218;16.414;2024-01-27T18:11:30;5.50;62.10
39103;DHT22;24847;48.218;16.414;2024-01-27T18:16:32;5.30;62.80
39103;DHT22;24847;48.218;16.414;2024-01-27T18:21:36;5.50;61.70
39103;DHT22;24847;48.218;16.414;2024-01-27T18:26:38;5.50;61.70
39103;DHT22;24847;48.218;16.414;2024-01-27T18:31:40;5.60;61.60
39103;DHT22;24847;48.218;16.414;2024-01-27T18:36:46;5.40;61.30
39103;DHT22;24847;48.218;16.414;2024-01-27T18:41:48;5.40;61.30
39103;DHT22;24847;48.218;16.414;2024-01-27T18:46:50;5.60;60.60
39103;DHT22;24847;48.218;16.414;2024-01-27T18:51:54;5.50;60.40
39103;DHT22;24847;48.218;16.414;2024-01-27T18:56:56;5.70;60.20
39103;DHT22;24847;48.218;16.414;2024-01-27T19:01:59;5.60;60.00
39103;DHT22;24847;48.218;16.414;2024-01-27T19:07:04;5.60;60.20
39103;DHT22;24847;48.218;16.414;2024-01-27T19:12:07;5.60;60.30
39103;DHT22;24847;48.218;16.414;2024-01-27T19:17:09;5.60;59.80
39103;DHT22;24847;48.218;16.414;2024-01-27T19:22:14;5.60;59.50
39103;DHT22;24847;48.218;16.414;2024-01-27T19:27:16;5.50;59.70
39103;DHT22;24847;48.218;16.414;2024-01-27T19:32:18;5.40;60.00
39103;DHT22;24847;48.218;16.414;2024-01-27T19:37:22;5.50;59.80
39103;DHT22;24847;48.218;16.414;2024-01-27T19:42:24;5.60;59.80
39103;DHT22;24847;48.218;16.414;2024-01-27T19:47:26;5.40;60.20
39103;DHT22;24847;48.218;16.414;2024-01-27T19:52:30;5.30;60.20
39103;DHT22;24847;48.218;16.414;2024-01-27T19:57:32;5.50;59.70
39103;DHT22;24847;48.218;16.414;2024-01-27T20:02:35;5.50;59.60
39103;DHT22;24847;48.218;16.414;2024-01-27T20:07:39;5.50;59.70
39103;DHT22;24847;48.218;16.414;2024-01-27T20:12:41;5.40;59.70
39103;DHT22;24847;48.218;16.414;2024-01-27T20:17:44;5.50;59.90
39103;DHT22;24847;48.218;16.414;2024-01-27T20:22:49;5.40;59.90
39103;DHT22;24847;48.218;16.414;2024-01-27T20:27:53;5.50;59.80
39103;DHT22;24847;48.218;16.414;2024-01-27T20:32:57;5.30;59.70
39103;DHT22;24847;48.218;16.414;2024-01-27T20:38:01;5.30;60.60
39103;DHT22;24847;48.218;16.414;2024-01-27T20:43:05;5.30;60.00
39103;DHT22;24847;48.218;16.414;2024-01-27T20:48:08;5.60;59.60
39103;DHT22;24847;48.218;16.414;2024-01-27T20:53:15;5.40;59.80
39103;DHT22;24847;48.218;16.414;2024-01-27T20:58:17;5.20;60.40
39103;DHT22;24847;48.218;16.414;2024-01-27T21:03:20;5.30;60.30
39103;DHT22;24847;48.218;16.414;2024-01-27T21:08:24;5.30;60.30
39103;DHT22;24847;48.218;16.414;2024-01-27T21:13:26;5.20;60.10
39103;DHT22;24847;48.218;16.414;2024-01-27T21:18:28;5.20;60.30
39103;DHT22;24847;48.218;16.414;2024-01-27T21:23:33;5.00;60.60
39103;DHT22;24847;48.218;16.414;2024-01-27T21:28:35;5.20;60.00
39103;DHT22;24847;48.218;16.414;2024-01-27T21:33:37;5.40;59.60
39103;DHT22;24847;48.218;16.414;2024-01-27T21:38:41;5.30;60.40
39103;DHT22;24847;48.218;16.414;2024-01-27T21:43:43;5.20;60.00
39103;DHT22;24847;48.218;16.414;2024-01-27T21:48:45;5.30;59.40
39103;DHT22;24847;48.218;16.414;2024-01-27T21:53:48;5.40;59.60
39103;DHT22;24847;48.218;16.414;2024-01-27T21:58:50;5.40;59.40
39103;DHT22;24847;48.218;16.414;2024-01-27T22:03:53;5.20;59.50
39103;DHT22;24847;48.218;16.414;2024-01-27T22:08:58;5.20;59.80
39103;DHT22;24847;48.218;16.414;2024-01-27T22:14:00;5.40;59.50
39103;DHT22;24847;48.218;16.414;2024-01-27T22:19:02;5.30;59.70
39103;DHT22;24847;48.218;16.414;2024-01-27T22:24:06;5.30;59.80
39103;DHT22;24847;48.218;16.414;2024-01-27T22:29:08;5.10;60.00
39103;DHT22;24847;48.218;16.414;2024-01-27T22:34:11;5.20;60.00
39103;DHT22;24847;48.218;16.414;2024-01-27T22:39:14;5.20;59.90
39103;DHT22;24847;48.218;16.414;2024-01-27T22:44:16;5.20;59.80
39103;DHT22;24847;48.218;16.414;2024-01-27T22:49:18;5.10;60.00
39103;DHT22;24847;48.218;16.414;2024-01-27T22:54:22;5.20;60.40
39103;DHT22;24847;48.218;16.414;2024-01-27T22:59:25;5.10;60.20
39103;DHT22;24847;48.218;16.414;2024-01-27T23:04:27;4.90;60.60
39103;DHT22;24847;48.218;16.414;2024-01-27T23:09:31;4.70;61.40
39103;DHT22;24847;48.218;16.414;2024-01-27T23:14:33;4.70;61.90
39103;DHT22;24847;48.218;16.414;2024-01-27T23:19:35;4.80;61.20
39103;DHT22;24847;48.218;16.414;2024-01-27T23:24:39;4.90;60.90
39103;DHT22;24847;48.218;16.414;2024-01-27T23:29:41;4.90;60.50
39103;DHT22;24847;48.218;16.414;2024-01-27T23:34:43;4.80;61.50
39103;DHT22;24847;48.218;16.414;2024-01-27T23:39:47;5.00;60.80
39103;DHT22;24847;48.218;16.414;2024-01-27T23:44:49;4.90;61.10
39103;DHT22;24847;48.218;16.414;2024-01-27T23:49:51;4.80;61.10
39103;DHT22;24847;48.218;16.414;2024-01-27T23:54:55;5.00;60.70
39103;DHT22;24847;48.218;16.414;2024-01-27T23:59:57;5.00;60.70
